PENO2: Grand Lake O' The Cherokees, Pensacola Dm

Data processed at Sat Jul 14 2018 23:31


All information presented herein is the property of the government of the United States of America and may be revised or deleted at any time without prior notice.
Dissemination of this information without the expressed written consent of the Public Affairs Office, Tulsa District U.S. Army Corps of Engineers is strictly prohibited.
These data are gathered electronically and, as presented, have not undergone any form of quality control. These data are not guaranteed to be valid or correct.
Go to home page.
Go to station list.

Upstream stations:

Downstream station:
Previous Day
Next Day
Current Day
    
SHEF ID:       PENO2     Pensacola (Grand Lake)
STATION TYPE:  RESERVOIR

               PRECIP ELEVATION   STORAGE    INFLOW   RELEASE  AIR-TEMP  WIND-DIRWIND-SPEED REL-HUMID SOLAR-RAD   VOLTAGE  BAT-LOAD
                   in        ft     ac-ft       cfs       cfs         F       deg       mph         %      W/m2      volt      volt
              Ccp-Rev   Ccp-Rev   Ccp-Rev  Regi-Rev  Regi-Rev   Ccp-Rev   Ccp-Rev   Ccp-Rev   Ccp-Rev   Ccp-Rev   Ccp-Rev   Ccp-Rev
(US/Central)
07/12 00:00      0.00    743.98   1473082       196         0     81.07     82.77      0.45     81.39      0.00     12.83     12.41
07/12 01:00      0.00    743.97   1472673        92         0     80.19     90.02      0.59     81.56      0.00     12.83     12.41
07/12 02:00      0.00    743.96   1472264         7       214     79.52     92.52      0.39     82.37      0.00     12.81     12.41
07/12 03:00      ----    743.96   1472264         7       428     77.88    106.04      0.30     86.90      0.00     12.82      ----
07/12 04:00      0.00    743.95   1471855         7       428     77.79    105.63      0.26     87.70      0.00     12.80     12.41
07/12 05:00      0.00    743.94   1471446         7       214     77.61    135.24      1.23     87.97      0.00     12.79     12.41
07/12 06:00      0.00    743.95   1471855         5       214     76.80    124.26      0.53     90.46      0.00     12.73     12.41
07/12 07:00      0.00    743.95   1471855        21       214     76.91    101.32      0.31     88.87     13.35     12.76     11.86
07/12 08:00      0.00    743.95   1471855        36       214     79.43     85.98      0.54     83.40    140.70     12.77     12.33
07/12 09:00      0.00    743.96   1472264        35       321     84.54     81.27      0.73     73.84    319.62     12.76     12.17
07/12 10:00      0.00    743.95   1471855        34       214     88.32     43.00      0.71     65.23    479.99     12.77     12.25
07/12 11:00      0.00    743.95   1471855        33         0     88.59    348.74      2.71     66.12    620.21     12.76     12.33
07/12 12:00      0.00    743.94   1471446        16         0     90.77    266.73      2.17     56.87    486.90     12.75     12.25
07/12 13:00      0.00    743.95   1471855         0         0     92.84    215.10      1.92     47.08    711.87     12.73     12.25
07/12 14:00      0.00    743.95   1471855         0         0     95.09    177.64      2.49     39.51    850.89     12.69     12.09
07/12 15:00      0.00    743.95   1471855         0         0     96.35    161.32      2.77     36.26    910.49     12.69     12.17
07/12 16:00      0.00    743.96   1472264         0         0     97.25     25.04      1.94     33.48    714.56     12.73     12.09
07/12 17:00      0.00    744.01   1474315         0         0     97.05    210.83      3.09     36.01    567.13     12.59     11.86
07/12 18:00      0.00    743.99   1473491        15       214     90.23    352.22      8.35     56.38    195.82     12.63     11.77
07/12 19:00      0.00    743.94   1471446        31       215     90.82    344.54      5.92     59.14    241.45     12.75     12.33
07/12 20:00      0.01    743.93   1471037        46       214     86.81    182.44      2.77     55.64     19.14     12.74     12.33
07/12 21:00      0.00    743.92   1470628        59       214     79.95    103.66      1.37     78.64      0.27     13.31     12.33
07/12 22:00      0.00    743.94   1471446        72       322     79.95    135.21      0.93     75.90      0.00     13.36     12.81
07/12 23:00      0.00    743.92   1470628        57       214     81.21    142.34      1.24     68.50      0.00     13.34     12.41